Al Hillah, Iraq
Current Conditions -  °F | °C
As of 11:00 AM on Monday 22 Dec 2014 (Local Time) from ORNI Reporting Station
Clear Clear  
Wind Chill: 57°   Ceiling: Unl
Heat Index: 57°   Visibility: 5mi
Dew Point: 45°   Wind: 9mph
Humidity: 63%   Direction: 310°NW
Pressure: 30.12"   Gusts: NA
Location:  32.48°N, 44.46°E
Report Text: ORNI 220800Z 31008KT 8000 NSC 14/07 Q1020 NOSIG
Loading
Personal Weather Stations






























Interactive Weather Map New forecast layout! Learn more

10-Day Weather Forecast

Advertisements
Track Severe Weather on mobile